createdAt,value
2018-03-23T00:01:40.375Z,97419.57
2018-03-23T00:04:09.049Z,97422.93
2018-03-23T00:06:37.865Z,97414.83
2018-03-23T00:09:07.179Z,97413.55
2018-03-23T00:11:36.379Z,97411.00
2018-03-23T00:14:05.141Z,97409.42
2018-03-23T00:16:33.918Z,97416.30
2018-03-23T00:19:02.517Z,97407.88
2018-03-23T00:21:31.202Z,97409.66
2018-03-23T00:23:59.834Z,97387.11
2018-03-23T00:26:28.514Z,97413.86
2018-03-23T00:28:58.078Z,97420.03
2018-03-23T00:31:27.108Z,97410.13
2018-03-23T00:33:55.759Z,97420.27
2018-03-23T00:36:25.223Z,97414.59
2018-03-23T00:38:54.031Z,97405.35
2018-03-23T00:41:23.748Z,97404.39
2018-03-23T00:43:52.882Z,97427.55
2018-03-23T00:46:21.476Z,97419.45
2018-03-23T00:48:50.147Z,97408.28
2018-03-23T00:51:19.587Z,97426.16
2018-03-23T00:53:48.233Z,97429.60
2018-03-23T00:56:17.933Z,97417.03
2018-03-23T00:58:46.674Z,97424.36
2018-03-23T01:01:16.009Z,97414.34
2018-03-23T01:03:44.678Z,97425.23
2018-03-23T01:06:13.455Z,97420.40
2018-03-23T01:08:42.855Z,97415.22
2018-03-23T01:11:12.240Z,97409.20
2018-03-23T01:13:41.862Z,97421.06
2018-03-23T01:16:10.972Z,97410.33
2018-03-23T01:18:39.517Z,97413.39
2018-03-23T01:21:09.645Z,97415.98
2018-03-23T01:23:38.238Z,97421.55
2018-03-23T01:26:06.942Z,97426.35
2018-03-23T01:28:35.569Z,97419.94
2018-03-23T01:31:05.221Z,97427.16
2018-03-23T01:33:34.643Z,97426.73
2018-03-23T01:36:04.111Z,97415.06
2018-03-23T01:38:32.773Z,97421.95
2018-03-23T01:41:01.730Z,97425.18
2018-03-23T01:43:31.312Z,97418.84
2018-03-23T01:46:00.205Z,97426.55
2018-03-23T01:48:28.795Z,97415.55
2018-03-23T01:50:57.462Z,97420.44
2018-03-23T01:53:43.873Z,97418.57
2018-03-23T01:56:12.612Z,97424.33
2018-03-23T01:58:41.380Z,97423.14
2018-03-23T02:01:11.007Z,97420.53
2018-03-23T02:03:40.712Z,97428.06
2018-03-23T02:06:09.365Z,97420.20
2018-03-23T02:08:37.993Z,97412.27
2018-03-23T02:11:06.665Z,97416.14
2018-03-23T02:13:35.199Z,97415.15
2018-03-23T02:16:03.978Z,97404.20
2018-03-23T02:18:32.619Z,97406.47
2018-03-23T02:21:01.150Z,97404.94
2018-03-23T02:23:29.774Z,97410.30
2018-03-23T02:25:59.259Z,97409.51
2018-03-23T02:28:27.923Z,97407.27
2018-03-23T02:30:56.624Z,97403.98
2018-03-23T02:33:25.968Z,97407.00
2018-03-23T02:35:55.050Z,97402.98
2018-03-23T02:38:24.500Z,97405.26
2018-03-23T02:40:53.107Z,97403.86
2018-03-23T02:43:21.706Z,97402.33
2018-03-23T02:45:50.191Z,97401.70
2018-03-23T02:48:19.586Z,97401.84
2018-03-23T02:50:48.297Z,97399.72
2018-03-23T02:53:16.834Z,97399.96
2018-03-23T02:55:45.377Z,97403.83
2018-03-23T02:58:13.969Z,97396.20
2018-03-23T03:00:42.562Z,97397.83
2018-03-23T03:03:11.266Z,97397.91
2018-03-23T03:05:40.308Z,97392.95
2018-03-23T03:08:09.513Z,97394.30
2018-03-23T03:10:39.264Z,97392.87
2018-03-23T03:13:07.826Z,97392.03
2018-03-23T03:15:36.517Z,97385.97
2018-03-23T03:18:05.932Z,97386.05
2018-03-23T03:20:34.531Z,97386.67
2018-03-23T03:23:03.246Z,97392.88
2018-03-23T03:25:32.611Z,97391.27
2018-03-23T03:28:01.334Z,97391.72
2018-03-23T03:30:29.987Z,97398.50
2018-03-23T03:33:00.125Z,97406.09
2018-03-23T03:35:28.845Z,97406.16
2018-03-23T03:37:59.524Z,97400.75
2018-03-23T03:40:28.312Z,97394.98
2018-03-23T03:42:56.959Z,97400.08
2018-03-23T03:45:25.741Z,97401.18
2018-03-23T03:47:54.362Z,97398.44
2018-03-23T03:50:23.092Z,97402.15
2018-03-23T03:52:51.817Z,97398.72
2018-03-23T03:55:20.426Z,97404.86
2018-03-23T03:57:49.978Z,97416.97
2018-03-23T04:00:19.265Z,97412.69
2018-03-23T04:02:47.871Z,97406.63
2018-03-23T04:05:16.557Z,97415.25
2018-03-23T04:07:45.389Z,97423.40
2018-03-23T04:10:14.464Z,97425.45
2018-03-23T04:12:43.751Z,97425.73
2018-03-23T04:15:13.408Z,97423.21
2018-03-23T04:17:42.144Z,97417.25
2018-03-23T04:20:11.589Z,97414.59
2018-03-23T04:22:40.158Z,97415.88
2018-03-23T04:25:08.814Z,97416.00
2018-03-23T04:27:37.331Z,97415.73
2018-03-23T04:30:06.009Z,97407.52
2018-03-23T04:32:34.624Z,97410.98
2018-03-23T04:35:04.110Z,97418.00
2018-03-23T04:37:33.971Z,97401.00
2018-03-23T04:40:04.214Z,97408.34
2018-03-23T04:42:33.318Z,97409.91
2018-03-23T04:45:01.988Z,97417.06
2018-03-23T04:47:30.731Z,97419.91
2018-03-23T04:49:59.543Z,97421.00
2018-03-23T04:52:28.150Z,97423.27
2018-03-23T04:54:56.723Z,97423.17
2018-03-23T04:57:25.346Z,97422.95
2018-03-23T04:59:54.043Z,97420.72
2018-03-23T05:02:22.726Z,97414.41
2018-03-23T05:04:51.354Z,97411.77
2018-03-23T05:07:19.949Z,97422.35
2018-03-23T05:09:48.730Z,97421.97
2018-03-23T05:12:17.632Z,97420.06
2018-03-23T05:14:47.629Z,97424.88
2018-03-23T05:17:16.429Z,97422.73
2018-03-23T05:19:44.941Z,97430.41
2018-03-23T05:22:13.635Z,97429.66
2018-03-23T05:24:42.301Z,97437.25
2018-03-23T05:27:11.628Z,97442.45
2018-03-23T05:29:41.036Z,97445.31
2018-03-23T05:32:09.774Z,97444.16
2018-03-23T05:34:38.562Z,97444.44
2018-03-23T05:37:08.055Z,97451.20
2018-03-23T05:39:36.737Z,97436.02
2018-03-23T05:42:05.358Z,97437.41
2018-03-23T05:44:34.553Z,97440.47
2018-03-23T05:47:03.963Z,97442.62
2018-03-23T05:49:32.784Z,97444.50
2018-03-23T05:52:01.411Z,97445.09
2018-03-23T05:54:30.104Z,97443.88
2018-03-23T05:56:58.824Z,97435.45
2018-03-23T05:59:27.539Z,97443.91
2018-03-23T06:01:56.257Z,97448.23
2018-03-23T06:04:24.837Z,97438.19
2018-03-23T06:06:53.536Z,97433.10
2018-03-23T06:09:22.130Z,97430.64
2018-03-23T06:11:50.742Z,97431.80
2018-03-23T06:14:19.340Z,97432.88
2018-03-23T06:16:48.281Z,97430.95
2018-03-23T06:19:17.093Z,97434.72
2018-03-23T06:21:46.760Z,97434.97
2018-03-23T06:24:16.308Z,97438.66
2018-03-23T06:26:45.134Z,97431.23
2018-03-23T06:29:13.831Z,97434.06
2018-03-23T06:31:42.423Z,97432.25
2018-03-23T06:34:11.807Z,97432.76
2018-03-23T06:36:40.652Z,97438.85
2018-03-23T06:39:09.995Z,97436.35
2018-03-23T06:41:38.682Z,97432.17
2018-03-23T06:44:08.118Z,97436.09
2018-03-23T06:46:36.771Z,97438.50
2018-03-23T06:49:05.963Z,97429.61
2018-03-23T06:51:35.330Z,97423.50
2018-03-23T06:54:05.107Z,97430.51
2018-03-23T06:56:33.723Z,97428.39
2018-03-23T06:59:02.426Z,97425.69
2018-03-23T07:01:31.059Z,97427.61
2018-03-23T07:03:59.712Z,97435.72
2018-03-23T07:06:28.467Z,97426.13
2018-03-23T07:08:57.081Z,97435.38
2018-03-23T07:11:25.649Z,97433.41
2018-03-23T07:13:54.176Z,97434.14
2018-03-23T07:16:22.822Z,97432.36
2018-03-23T07:18:52.290Z,97429.23
2018-03-23T07:21:20.888Z,97435.76
2018-03-23T07:23:50.146Z,97445.25
2018-03-23T07:26:19.445Z,97451.34
2018-03-23T07:28:48.098Z,97451.52
2018-03-23T07:31:16.652Z,97460.45
2018-03-23T07:33:45.682Z,97461.91
2018-03-23T07:36:14.729Z,97466.47
2018-03-23T07:38:43.348Z,97473.16
2018-03-23T07:41:12.666Z,97457.49
2018-03-23T07:43:42.123Z,97452.22
2018-03-23T07:46:10.677Z,97466.66
2018-03-23T07:48:39.585Z,97458.41
2018-03-23T07:51:08.348Z,97467.07
2018-03-23T07:53:37.036Z,97480.33
2018-03-23T07:56:06.743Z,97481.94
2018-03-23T07:58:37.301Z,97474.67
2018-03-23T08:01:06.921Z,97483.36
2018-03-23T08:03:36.364Z,97492.52
2018-03-23T08:06:05.010Z,97489.41
2018-03-23T08:08:33.642Z,97489.12
2018-03-23T08:11:02.305Z,97495.00
2018-03-23T08:13:31.044Z,97487.79
2018-03-23T08:15:59.783Z,97487.92
2018-03-23T08:18:28.458Z,97483.38
2018-03-23T08:20:57.056Z,97486.22
2018-03-23T08:23:25.634Z,97490.38
2018-03-23T08:25:54.876Z,97474.73
2018-03-23T08:28:23.824Z,97476.11
2018-03-23T08:30:52.657Z,97481.81
2018-03-23T08:33:21.985Z,97485.09
2018-03-23T08:35:50.583Z,97487.51
2018-03-23T08:38:19.244Z,97485.47
2018-03-23T08:40:47.880Z,97488.25
2018-03-23T08:43:17.273Z,97487.93
2018-03-23T08:45:45.911Z,97486.05
2018-03-23T08:48:15.278Z,97471.17
2018-03-23T08:50:44.032Z,97476.07
2018-03-23T08:53:13.524Z,97469.97
2018-03-23T08:55:42.150Z,97479.19
2018-03-23T08:58:11.407Z,97468.34
2018-03-23T09:00:41.595Z,97472.57
2018-03-23T09:03:10.343Z,97480.44
2018-03-23T09:05:39.850Z,97469.48
2018-03-23T09:08:08.666Z,97478.84
2018-03-23T09:10:37.517Z,97470.17
2018-03-23T09:13:06.227Z,97475.92
2018-03-23T09:15:34.773Z,97483.25
2018-03-23T09:18:03.412Z,97468.14
2018-03-23T09:20:32.036Z,97469.38
2018-03-23T09:23:00.740Z,97470.77
2018-03-23T09:25:29.381Z,97463.58
2018-03-23T09:27:58.069Z,97467.55
2018-03-23T09:30:28.309Z,97469.05
2018-03-23T09:32:57.363Z,97464.92
2018-03-23T09:35:26.118Z,97456.16
2018-03-23T09:37:54.737Z,97457.67
2018-03-23T09:40:23.566Z,97446.86
2018-03-23T09:42:52.154Z,97439.41
2018-03-23T09:45:20.810Z,97445.67
2018-03-23T09:47:49.524Z,97444.87
2018-03-23T09:50:18.142Z,97453.27
2018-03-23T09:52:47.743Z,97452.52
2018-03-23T09:55:16.433Z,97448.63
2018-03-23T09:57:45.420Z,97443.77
2018-03-23T10:00:14.444Z,97442.95
2018-03-23T10:02:43.473Z,97430.61
2018-03-23T10:05:13.012Z,97437.00
2018-03-23T10:07:41.737Z,97441.47
2018-03-23T10:10:10.449Z,97438.84
2018-03-23T10:12:39.161Z,97430.56
2018-03-23T10:15:08.173Z,97430.76
2018-03-23T10:17:36.783Z,97425.97
2018-03-23T10:20:06.568Z,97420.38
2018-03-23T10:22:35.165Z,97420.36
2018-03-23T10:25:03.890Z,97421.28
2018-03-23T10:27:32.575Z,97424.80
2018-03-23T10:30:01.142Z,97426.23
2018-03-23T10:32:30.647Z,97425.66
2018-03-23T10:34:59.849Z,97426.94
2018-03-23T10:37:28.938Z,97430.54
2018-03-23T10:39:57.715Z,97428.20
2018-03-23T10:42:27.132Z,97418.11
2018-03-23T10:44:56.482Z,97409.92
2018-03-23T10:47:25.949Z,97415.53
2018-03-23T10:49:54.659Z,97402.06
2018-03-23T10:52:23.765Z,97420.36
2018-03-23T10:54:52.563Z,97417.08
2018-03-23T10:57:21.163Z,97407.61
2018-03-23T10:59:49.675Z,97414.45
2018-03-23T11:05:25.996Z,97396.53
2018-03-23T11:07:55.269Z,97391.67
2018-03-23T11:10:24.149Z,97394.56
2018-03-23T11:12:53.656Z,97395.33
2018-03-23T11:15:22.808Z,97394.41
2018-03-23T11:17:51.491Z,97389.44
2018-03-23T11:20:20.222Z,97404.98
2018-03-23T11:22:48.912Z,97400.06
2018-03-23T11:25:17.605Z,97391.59
2018-03-23T11:27:46.198Z,97395.70
2018-03-23T11:30:14.929Z,97398.73
2018-03-23T11:32:43.463Z,97394.26
2018-03-23T11:35:12.169Z,97385.69
2018-03-23T11:37:40.815Z,97376.09
2018-03-23T11:40:10.747Z,97380.86
2018-03-23T11:42:40.441Z,97382.23
2018-03-23T11:45:09.097Z,97372.58
2018-03-23T11:47:37.659Z,97384.66
2018-03-23T11:50:06.345Z,97372.79
2018-03-23T11:52:35.066Z,97370.77
2018-03-23T11:55:04.420Z,97360.33
2018-03-23T11:57:33.154Z,97373.38
2018-03-23T12:00:01.894Z,97368.11
2018-03-23T12:02:30.491Z,97369.91
2018-03-23T12:04:59.133Z,97367.68
2018-03-23T12:07:27.762Z,97350.52
2018-03-23T12:09:56.462Z,97357.55
2018-03-23T12:12:25.927Z,97355.71
2018-03-23T12:14:55.837Z,97356.73
2018-03-23T12:17:24.574Z,97347.53
2018-03-23T12:19:54.009Z,97353.80
2018-03-23T12:22:22.742Z,97344.47
2018-03-23T12:24:51.637Z,97356.45
2018-03-23T12:27:20.452Z,97350.41
2018-03-23T12:29:49.493Z,97363.37
2018-03-23T12:32:18.546Z,97355.83
2018-03-23T12:34:48.006Z,97355.15
2018-03-23T12:37:16.618Z,97363.20
2018-03-23T12:39:45.297Z,97364.50
2018-03-23T12:42:16.060Z,97366.78
2018-03-23T12:44:46.289Z,97364.63
2018-03-23T12:47:15.166Z,97363.53
2018-03-23T12:49:44.009Z,97359.98
2018-03-23T12:52:13.679Z,97349.55
2018-03-23T12:54:42.411Z,97361.34
2018-03-23T12:57:11.172Z,97354.70
2018-03-23T12:59:39.961Z,97355.36
2018-03-23T13:02:09.632Z,97365.31
2018-03-23T13:04:38.282Z,97357.25
2018-03-23T13:07:08.538Z,97352.45
2018-03-23T13:09:38.065Z,97347.28
2018-03-23T13:12:08.547Z,97360.59
2018-03-23T13:14:38.211Z,97358.22
2018-03-23T13:17:07.416Z,97357.75
2018-03-23T13:19:36.192Z,97354.48
2018-03-23T13:22:05.385Z,97354.56
2018-03-23T13:24:34.283Z,97348.58
2018-03-23T13:27:03.910Z,97350.44
2018-03-23T13:29:32.856Z,97354.80
2018-03-23T13:32:01.755Z,97342.74
2018-03-23T13:34:31.413Z,97346.83
2018-03-23T13:37:00.278Z,97336.45
2018-03-23T13:39:29.215Z,97332.67
2018-03-23T13:41:58.920Z,97342.59
2018-03-23T13:44:28.116Z,97344.22
2018-03-23T13:46:56.785Z,97346.45
2018-03-23T13:49:25.448Z,97357.36
2018-03-23T13:51:55.843Z,97357.82
2018-03-23T13:54:24.477Z,97351.14
2018-03-23T13:56:53.472Z,97355.41
2018-03-23T13:59:27.691Z,97367.44
2018-03-23T14:01:56.397Z,97364.44
2018-03-23T14:04:25.517Z,97371.41
2018-03-23T14:06:54.890Z,97355.70
2018-03-23T14:09:24.392Z,97375.75
2018-03-23T14:11:54.308Z,97356.86
2018-03-23T14:14:23.087Z,97357.70
2018-03-23T14:16:51.929Z,97352.61
2018-03-23T14:19:25.089Z,97334.57
2018-03-23T14:21:54.408Z,97337.92
2018-03-23T14:24:24.487Z,97355.59
2018-03-23T14:26:53.294Z,97351.65
2018-03-23T14:29:22.138Z,97352.21
2018-03-23T14:31:50.977Z,97352.83
2018-03-23T14:34:20.508Z,97345.70
2018-03-23T14:36:50.843Z,97344.75
2018-03-23T14:39:20.212Z,97349.37
2018-03-23T14:41:48.943Z,97363.95
2018-03-23T14:44:17.672Z,97358.36
2018-03-23T14:46:47.169Z,97342.22
2018-03-23T14:49:16.170Z,97343.73
2018-03-23T14:51:45.602Z,97351.30
2018-03-23T14:54:14.671Z,97356.11
2018-03-23T14:56:44.248Z,97348.25
2018-03-23T14:59:18.192Z,97349.55
2018-03-23T15:01:49.183Z,97337.81
2018-03-23T15:04:18.187Z,97355.83
2018-03-23T15:06:48.631Z,97341.19
2018-03-23T15:09:17.559Z,97344.27
2018-03-23T15:11:47.424Z,97341.52
2018-03-23T15:14:20.165Z,97347.84
2018-03-23T15:16:49.916Z,97342.52
2018-03-23T15:19:19.419Z,97338.61
2018-03-23T15:21:48.879Z,97350.92
2018-03-23T15:24:18.738Z,97337.77
2018-03-23T15:26:48.045Z,97338.42
2018-03-23T15:29:17.259Z,97323.00
2018-03-23T15:31:46.365Z,97329.03
2018-03-23T15:34:15.787Z,97328.92
2018-03-23T15:36:45.822Z,97337.89
2018-03-23T15:39:14.647Z,97318.00
2018-03-23T15:41:43.681Z,97331.54
2018-03-23T15:44:13.151Z,97324.39
2018-03-23T15:46:42.862Z,97324.71
2018-03-23T15:49:11.797Z,97314.19
2018-03-23T15:51:41.951Z,97320.03
2018-03-23T15:54:11.784Z,97326.69
2018-03-23T15:56:41.399Z,97318.89
2018-03-23T15:59:11.062Z,97320.03
2018-03-23T16:01:39.852Z,97314.39
2018-03-23T16:04:09.644Z,97312.61
2018-03-23T16:06:39.667Z,97311.22
2018-03-23T16:09:08.562Z,97312.70
2018-03-23T16:11:38.004Z,97309.07
2018-03-23T16:14:07.048Z,97304.89
2018-03-23T16:16:36.767Z,97303.16
2018-03-23T16:19:10.931Z,97305.40
2018-03-23T16:21:40.212Z,97300.42
2018-03-23T16:24:10.474Z,97307.93
2018-03-23T16:26:40.267Z,97308.42
2018-03-23T16:29:09.289Z,97305.39
2018-03-23T16:31:38.739Z,97305.45
2018-03-23T16:34:08.478Z,97309.86
2018-03-23T16:36:38.306Z,97310.28
2018-03-23T16:39:07.503Z,97309.71
2018-03-23T16:41:36.823Z,97312.30
2018-03-23T16:44:06.798Z,97317.17
2018-03-23T16:46:36.856Z,97313.35
2018-03-23T16:49:05.878Z,97308.34
2018-03-23T16:51:34.942Z,97310.39
2018-03-23T16:54:05.077Z,97305.38
2018-03-23T16:56:36.383Z,97306.72
2018-03-23T16:59:05.964Z,97312.09
2018-03-23T17:01:35.915Z,97305.44
2018-03-23T17:04:05.721Z,97313.04
2018-03-23T17:06:34.903Z,97303.27
2018-03-23T17:09:04.827Z,97318.80
2018-03-23T17:11:34.548Z,97306.76
2018-03-23T17:14:04.391Z,97303.71
2018-03-23T17:16:33.494Z,97301.24
2018-03-23T17:19:02.649Z,97307.02
2018-03-23T17:21:31.656Z,97303.59
2018-03-23T17:24:01.437Z,97292.84
2018-03-23T17:26:31.236Z,97294.74
2018-03-23T17:29:00.295Z,97308.27
2018-03-23T17:31:29.291Z,97313.93
2018-03-23T17:33:58.379Z,97314.05
2018-03-23T17:36:27.459Z,97318.13
2018-03-23T17:38:57.596Z,97323.58
2018-03-23T17:41:27.285Z,97327.28
2018-03-23T17:43:56.433Z,97330.36
2018-03-23T17:46:25.627Z,97331.72
2018-03-23T17:48:54.811Z,97334.36
2018-03-23T17:51:24.098Z,97330.08
2018-03-23T17:53:53.280Z,97328.95
2018-03-23T17:56:22.383Z,97327.05
2018-03-23T17:58:51.620Z,97334.40
2018-03-23T18:01:21.814Z,97331.05
2018-03-23T18:03:51.010Z,97338.30
2018-03-23T18:06:20.399Z,97341.25
2018-03-23T18:08:51.792Z,97342.72
2018-03-23T18:11:21.050Z,97339.39
2018-03-23T18:13:50.304Z,97340.75
2018-03-23T18:16:19.359Z,97341.03
2018-03-23T18:18:49.124Z,97341.33
2018-03-23T18:21:18.422Z,97343.73
2018-03-23T18:23:47.648Z,97338.44
2018-03-23T18:26:16.813Z,97344.82
2018-03-23T18:28:46.079Z,97345.38
2018-03-23T18:31:15.171Z,97347.98
2018-03-23T18:33:45.448Z,97352.28
2018-03-23T18:36:16.276Z,97357.22
2018-03-23T18:38:46.244Z,97358.44
2018-03-23T18:41:17.261Z,97361.31
2018-03-23T18:43:46.341Z,97371.39
2018-03-23T18:46:16.382Z,97371.55
2018-03-23T18:48:45.573Z,97370.80
2018-03-23T18:51:15.349Z,97375.02
2018-03-23T18:53:45.694Z,97375.25
2018-03-23T18:56:16.217Z,97379.97
2018-03-23T18:58:48.479Z,97380.34
2018-03-23T19:01:17.743Z,97388.02
2018-03-23T19:03:48.431Z,97382.88
2018-03-23T19:06:17.747Z,97377.41
2018-03-23T19:08:49.759Z,97381.38
2018-03-23T19:11:22.978Z,97379.09
2018-03-23T19:13:53.091Z,97377.95
2018-03-23T19:16:25.545Z,97379.66
2018-03-23T19:18:56.287Z,97388.58
2018-03-23T19:21:26.716Z,97380.63
2018-03-23T19:23:56.885Z,97390.97
2018-03-23T19:26:28.833Z,97394.59
2018-03-23T19:28:58.739Z,97392.13
2018-03-23T19:31:29.389Z,97391.89
2018-03-23T19:33:59.364Z,97396.01
2018-03-23T19:36:31.166Z,97402.04
2018-03-23T19:39:02.869Z,97406.58
2018-03-23T19:41:35.313Z,97402.37
2018-03-23T19:44:06.083Z,97402.92
2018-03-23T19:46:35.714Z,97408.20
2018-03-23T19:49:06.356Z,97407.48
2018-03-23T19:51:36.500Z,97399.13
2018-03-23T19:54:06.697Z,97403.41
2018-03-23T19:56:38.895Z,97401.32
2018-03-23T19:59:08.941Z,97401.17
2018-03-23T20:01:39.376Z,97406.91
2018-03-23T20:04:08.644Z,97404.75
2018-03-23T20:06:37.733Z,97399.38
2018-03-23T20:09:07.490Z,97402.73
2018-03-23T20:11:38.764Z,97400.75
2018-03-23T20:14:13.159Z,97400.52
2018-03-23T20:16:42.693Z,97407.78
2018-03-23T20:19:14.292Z,97404.25
2018-03-23T20:21:43.592Z,97409.57
2018-03-23T20:24:18.213Z,97412.39
2018-03-23T20:26:47.715Z,97420.55
2018-03-23T20:29:17.974Z,97426.69
2018-03-23T20:31:52.389Z,97421.06
2018-03-23T20:34:22.643Z,97419.39
2018-03-23T20:36:56.041Z,97423.22
2018-03-23T20:39:25.944Z,97426.91
2018-03-23T20:41:55.458Z,97426.23
2018-03-23T20:44:26.117Z,97429.31
2018-03-23T20:46:57.019Z,97430.39
2018-03-23T20:49:27.383Z,97435.06
2018-03-23T20:51:56.714Z,97437.92
2018-03-23T20:54:27.174Z,97439.94
2018-03-23T20:56:57.910Z,97440.78
2018-03-23T20:59:29.133Z,97443.39
2018-03-23T21:01:59.200Z,97446.00
2018-03-23T21:04:28.569Z,97438.79
2018-03-23T21:06:58.781Z,97443.45
2018-03-23T21:09:29.935Z,97436.27
2018-03-23T21:12:00.176Z,97434.95
2018-03-23T21:14:29.828Z,97432.89
2018-03-23T21:17:00.334Z,97433.63
2018-03-23T21:19:31.521Z,97437.95
2018-03-23T21:22:00.849Z,97438.26
2018-03-23T21:24:34.159Z,97440.03
2018-03-23T21:27:03.519Z,97436.91
2018-03-23T21:29:33.440Z,97446.38
2018-03-23T21:32:03.335Z,97442.70
2018-03-23T21:34:32.617Z,97439.67
2018-03-23T21:37:03.288Z,97442.87
2018-03-23T21:39:33.461Z,97446.45
2018-03-23T21:42:04.671Z,97452.36
2018-03-23T21:44:33.829Z,97450.60
2018-03-23T21:47:04.129Z,97450.00
2018-03-23T21:49:33.785Z,97448.37
2018-03-23T21:52:03.357Z,97450.82
2018-03-23T21:54:32.579Z,97450.86
2018-03-23T21:57:01.963Z,97453.88
2018-03-23T21:59:31.474Z,97453.30
2018-03-23T22:02:00.258Z,97443.65
2018-03-23T22:04:29.044Z,97447.94
2018-03-23T22:06:58.487Z,97449.28
2018-03-23T22:09:28.663Z,97460.35
2018-03-23T22:11:57.731Z,97459.22
2018-03-23T22:14:26.456Z,97460.70
2018-03-23T22:16:55.775Z,97468.58
2018-03-23T22:19:24.808Z,97456.95
2018-03-23T22:21:53.944Z,97459.72
2018-03-23T22:24:23.049Z,97462.71
2018-03-23T22:26:51.818Z,97459.11
2018-03-23T22:29:20.464Z,97464.33
2018-03-23T22:31:49.193Z,97462.63
2018-03-23T22:34:17.930Z,97463.87
2018-03-23T22:36:47.782Z,97464.36
2018-03-23T22:39:17.158Z,97466.83
2018-03-23T22:41:46.710Z,97467.83
2018-03-23T22:44:15.353Z,97462.52
2018-03-23T22:46:43.983Z,97460.25
2018-03-23T22:49:12.776Z,97461.45
2018-03-23T22:51:41.473Z,97454.08
2018-03-23T22:54:10.159Z,97459.05
2018-03-23T22:56:38.861Z,97454.06
2018-03-23T22:59:07.749Z,97455.62
2018-03-23T23:01:37.201Z,97448.70
2018-03-23T23:04:05.777Z,97449.46
2018-03-23T23:06:34.478Z,97446.15
2018-03-23T23:09:03.742Z,97453.17
2018-03-23T23:11:33.012Z,97455.95
2018-03-23T23:14:01.937Z,97456.16
2018-03-23T23:16:31.347Z,97456.51
2018-03-23T23:18:59.965Z,97454.92
2018-03-23T23:21:29.535Z,97457.38
2018-03-23T23:23:58.181Z,97450.64
2018-03-23T23:26:26.910Z,97451.91
2018-03-23T23:28:56.470Z,97450.70
2018-03-23T23:31:25.169Z,97451.34
2018-03-23T23:33:54.753Z,97454.87
2018-03-23T23:36:24.185Z,97454.66
2018-03-23T23:38:53.020Z,97457.40
2018-03-23T23:41:22.229Z,97455.87
2018-03-23T23:43:52.110Z,97455.67
2018-03-23T23:46:20.738Z,97450.74
2018-03-23T23:48:49.360Z,97455.88
2018-03-23T23:51:18.027Z,97464.05
2018-03-23T23:53:46.620Z,97461.84
2018-03-23T23:56:15.350Z,97462.50
2018-03-23T23:58:44.834Z,97463.78
